KCHS/CHS METAR and TAF weather

Enter ICAO airport designator
Station Type Date Time Source
KCHS METAR 2019/05/25 08:56 UTC NOAA

KCHS 250856Z 25005KT 10SM CLR 23/21 A3005 RMK AO2 SLP176 T02330211 53001


Station Type Date Time Source
KCHS Decoded METAR 2019/05/25 08:56 UTC NOAA

CHARLESTON INT'L AIRPORT, SC, United States (KCHS) 32-54N 080-02W 13M
May 25, 2019 - 04:56 AM EDT / 2019.05.25 0856 UTC
Wind: from the WSW (250 degrees) at 6 MPH (5 KT):0
Visibility: 10 mile(s):0
Sky conditions: clear
Temperature: 73.9 F (23.3 C)
Dew Point: 70.0 F (21.1 C)
Relative Humidity: 87%
Pressure (altimeter): 30.05 in. Hg (1017 hPa)
Pressure tendency: 0.00 inches (0.1 hPa) higher than three hours ago
ob: KCHS 250856Z 25005KT 10SM CLR 23/21 A3005 RMK AO2 SLP176 T02330211 53001
cycle: 9

Station Type Date Time Source
KCHS TAF 2019/05/25 06:26 UTC NOAA

TAF KCHS 250520Z 2506/2606 23003KT P6SM SKC
FM252000 15010KT P6SM SCT070
FM260100 16006KT P6SM SKC

Example: see airport list